createdAt,value
2018-04-09T00:00:24.729Z,48.50
2018-04-09T00:01:31.082Z,47.70
2018-04-09T00:02:37.940Z,49.70
2018-04-09T00:03:42.341Z,49.23
2018-04-09T00:04:46.580Z,48.33
2018-04-09T00:05:53.590Z,49.60
2018-04-09T00:07:00.254Z,48.10
2018-04-09T00:08:08.015Z,49.40
2018-04-09T00:09:12.231Z,49.97
2018-04-09T00:10:16.457Z,50.20
2018-04-09T00:11:22.954Z,49.23
2018-04-09T00:12:30.011Z,49.07
2018-04-09T00:13:36.475Z,50.70
2018-04-09T00:14:41.617Z,49.77
2018-04-09T00:15:45.840Z,47.53
2018-04-09T00:16:52.025Z,49.70
2018-04-09T00:17:59.323Z,49.87
2018-04-09T00:19:05.235Z,49.53
2018-04-09T00:20:10.282Z,48.07
2018-04-09T00:21:14.506Z,51.00
2018-04-09T00:22:20.323Z,50.43
2018-04-09T00:23:29.067Z,50.83
2018-04-09T00:24:35.115Z,48.23
2018-04-09T00:25:40.510Z,49.10
2018-04-09T00:26:44.728Z,49.83
2018-04-09T00:27:48.960Z,49.53
2018-04-09T00:28:58.541Z,49.57
2018-04-09T00:30:05.415Z,51.23
2018-04-09T00:31:10.169Z,49.40
2018-04-09T00:32:14.382Z,50.60
2018-04-09T00:33:18.597Z,47.70
2018-04-09T00:34:27.144Z,50.97
2018-04-09T00:35:35.359Z,48.57
2018-04-09T00:36:40.241Z,49.87
2018-04-09T00:37:44.441Z,50.13
2018-04-09T00:38:48.659Z,53.77
2018-04-09T00:39:58.838Z,51.27
2018-04-09T00:41:05.496Z,51.87
2018-04-09T00:42:09.969Z,53.00
2018-04-09T00:43:14.183Z,53.20
2018-04-09T00:44:18.407Z,53.80
2018-04-09T00:45:28.667Z,51.60
2018-04-09T00:46:37.275Z,54.67
2018-04-09T00:47:41.962Z,50.03
2018-04-09T00:48:46.184Z,49.63
2018-04-09T00:49:54.808Z,52.13
2018-04-09T00:51:03.486Z,51.60
2018-04-09T00:52:09.784Z,51.47
2018-04-09T00:53:14.050Z,51.00
2018-04-09T00:54:18.304Z,53.63
2018-04-09T00:55:26.299Z,51.50
2018-04-09T00:56:33.652Z,50.80
2018-04-09T00:57:39.207Z,55.70
2018-04-09T00:58:44.187Z,54.03
2018-04-09T00:59:48.432Z,55.83
2018-04-09T01:00:54.274Z,55.00
2018-04-09T01:02:00.826Z,56.20
2018-04-09T01:03:06.226Z,52.73
2018-04-09T01:04:10.520Z,55.30
2018-04-09T01:05:15.542Z,54.17
2018-04-09T01:06:23.377Z,55.23
2018-04-09T01:07:29.029Z,51.00
2018-04-09T01:08:35.763Z,53.20
2018-04-09T01:09:39.975Z,53.67
2018-04-09T01:10:44.220Z,53.63
2018-04-09T01:11:48.426Z,50.97
2018-04-09T01:12:53.838Z,50.63
2018-04-09T01:14:01.299Z,54.23
2018-04-09T01:15:05.995Z,53.93
2018-04-09T01:16:10.281Z,56.00
2018-04-09T01:17:14.505Z,52.23
2018-04-09T01:18:18.726Z,52.40
2018-04-09T01:19:25.407Z,53.03
2018-04-09T01:20:31.813Z,53.30
2018-04-09T01:21:39.006Z,54.50
2018-04-09T01:22:43.222Z,54.03
2018-04-09T01:23:47.447Z,56.80
2018-04-09T01:24:56.470Z,52.70
2018-04-09T01:26:06.400Z,53.70
2018-04-09T01:27:10.997Z,54.13
2018-04-09T01:28:15.277Z,54.50
2018-04-09T01:29:20.870Z,53.20
2018-04-09T01:30:30.601Z,55.30
2018-04-09T01:31:39.153Z,56.00
2018-04-09T01:32:43.429Z,54.43
2018-04-09T01:33:47.677Z,55.50
2018-04-09T01:34:58.584Z,52.60
2018-04-09T01:36:06.302Z,53.97
2018-04-09T01:37:10.688Z,54.53
2018-04-09T01:38:15.749Z,55.27
2018-04-09T01:39:22.676Z,56.30
2018-04-09T01:40:31.897Z,56.30
2018-04-09T01:41:37.769Z,55.40
2018-04-09T01:42:42.907Z,55.77
2018-04-09T01:43:47.944Z,55.40
2018-04-09T01:44:56.168Z,56.37
2018-04-09T01:46:04.184Z,54.57
2018-04-09T01:47:10.283Z,52.83
2018-04-09T01:48:14.507Z,55.53
2018-04-09T01:49:18.739Z,55.63
2018-04-09T01:50:27.729Z,56.20
2018-04-09T01:51:34.320Z,57.30
2018-04-09T01:52:40.173Z,57.23
2018-04-09T01:53:44.391Z,59.10
2018-04-09T01:54:48.611Z,57.87
2018-04-09T01:55:56.262Z,55.97
2018-04-09T01:57:03.739Z,58.67
2018-04-09T01:58:09.298Z,58.03
2018-04-09T01:59:13.535Z,58.83
2018-04-09T02:00:17.747Z,59.43
2018-04-09T02:01:26.875Z,59.20
2018-04-09T02:02:35.313Z,54.53
2018-04-09T02:03:41.636Z,57.10
2018-04-09T02:04:46.278Z,56.20
2018-04-09T02:05:53.259Z,54.70
2018-04-09T02:07:01.663Z,57.10
2018-04-09T02:08:07.321Z,54.93
2018-04-09T02:09:11.547Z,55.03
2018-04-09T02:10:16.157Z,55.40
2018-04-09T02:11:21.354Z,56.23
2018-04-09T02:12:29.432Z,54.43
2018-04-09T02:13:34.377Z,55.53
2018-04-09T02:14:38.660Z,56.20
2018-04-09T02:15:42.940Z,55.60
2018-04-09T02:16:47.154Z,55.03
2018-04-09T02:17:53.880Z,54.90
2018-04-09T02:19:00.497Z,57.17
2018-04-09T02:20:06.497Z,58.00
2018-04-09T02:21:11.498Z,54.13
2018-04-09T02:22:15.725Z,58.10
2018-04-09T02:23:23.050Z,54.63
2018-04-09T02:24:30.306Z,55.60
2018-04-09T02:25:38.281Z,57.00
2018-04-09T02:26:42.484Z,55.70
2018-04-09T02:27:46.717Z,55.60
2018-04-09T02:28:53.206Z,56.23
2018-04-09T02:30:03.045Z,55.93
2018-04-09T02:31:09.477Z,53.60
2018-04-09T02:32:13.722Z,54.50
2018-04-09T02:33:17.978Z,55.87
2018-04-09T02:34:25.400Z,56.37
2018-04-09T02:35:33.901Z,58.83
2018-04-09T02:36:39.696Z,56.17
2018-04-09T02:37:43.916Z,56.33
2018-04-09T02:38:48.127Z,55.80
2018-04-09T02:39:58.430Z,56.10
2018-04-09T02:41:05.237Z,54.80
2018-04-09T02:42:10.725Z,53.30
2018-04-09T02:43:14.983Z,55.73
2018-04-09T02:44:19.183Z,54.83
2018-04-09T02:45:27.793Z,54.70
2018-04-09T02:46:37.456Z,55.90
2018-04-09T02:47:42.123Z,54.80
2018-04-09T02:48:46.345Z,55.47
2018-04-09T02:49:55.927Z,57.10
2018-04-09T02:51:06.844Z,53.50
2018-04-09T02:52:12.824Z,55.13
2018-04-09T02:53:17.819Z,58.70
2018-04-09T02:54:25.944Z,53.17
2018-04-09T02:55:32.781Z,57.10
2018-04-09T02:56:39.211Z,59.10
2018-04-09T02:57:43.472Z,57.47
2018-04-09T02:58:47.775Z,59.00
2018-04-09T02:59:57.884Z,56.47
2018-04-09T03:01:08.249Z,56.23
2018-04-09T03:02:12.515Z,59.20
2018-04-09T03:03:16.752Z,58.70
2018-04-09T03:04:24.860Z,57.57
2018-04-09T03:05:33.982Z,60.00
2018-04-09T03:06:40.414Z,56.53
2018-04-09T03:07:44.673Z,57.57
2018-04-09T03:08:48.967Z,57.10
2018-04-09T03:09:59.174Z,59.77
2018-04-09T03:11:05.978Z,59.47
2018-04-09T03:12:11.328Z,59.30
2018-04-09T03:13:15.561Z,61.83
2018-04-09T03:14:23.100Z,58.90
2018-04-09T03:15:31.049Z,59.77
2018-04-09T03:16:38.963Z,58.37
2018-04-09T03:17:43.256Z,58.33
2018-04-09T03:18:47.468Z,58.77
2018-04-09T03:19:56.640Z,57.17
2018-04-09T03:21:04.200Z,60.73
2018-04-09T03:22:09.666Z,54.93
2018-04-09T03:23:13.911Z,56.67
2018-04-09T03:24:18.967Z,57.57
2018-04-09T03:25:31.416Z,58.57
2018-04-09T03:26:37.848Z,59.20
2018-04-09T03:27:42.131Z,57.90
2018-04-09T03:28:47.102Z,60.83
2018-04-09T03:29:55.972Z,56.80
2018-04-09T03:31:03.243Z,60.67
2018-04-09T03:32:10.466Z,58.63
2018-04-09T03:33:14.762Z,60.63
2018-04-09T03:34:19.546Z,61.10
2018-04-09T03:35:29.632Z,58.47
2018-04-09T03:36:36.871Z,60.20
2018-04-09T03:37:42.361Z,58.17
2018-04-09T03:38:46.573Z,58.10
2018-04-09T03:39:53.614Z,54.20
2018-04-09T03:41:00.946Z,59.97
2018-04-09T03:42:06.535Z,61.20
2018-04-09T03:43:11.534Z,58.43
2018-04-09T03:44:15.757Z,57.63
2018-04-09T03:45:22.506Z,58.40
2018-04-09T03:46:30.646Z,57.50
2018-04-09T03:47:36.400Z,58.50
2018-04-09T03:48:41.369Z,59.20
2018-04-09T03:49:45.562Z,57.10
2018-04-09T03:50:51.236Z,58.17
2018-04-09T03:52:01.798Z,58.27
2018-04-09T03:53:08.862Z,59.10
2018-04-09T03:54:13.108Z,62.60
2018-04-09T03:55:17.358Z,59.47
2018-04-09T03:56:27.083Z,58.27
2018-04-09T03:57:35.056Z,60.50
2018-04-09T03:58:40.877Z,58.80
2018-04-09T03:59:45.096Z,60.30
2018-04-09T04:00:49.314Z,61.50
2018-04-09T04:01:59.546Z,58.93
2018-04-09T04:03:08.312Z,57.80
2018-04-09T04:04:12.886Z,59.70
2018-04-09T04:05:17.103Z,57.37
2018-04-09T04:06:25.102Z,59.67
2018-04-09T04:07:33.669Z,60.03
2018-04-09T04:08:39.219Z,61.23
2018-04-09T04:09:44.605Z,57.67
2018-04-09T04:10:48.825Z,59.27
2018-04-09T04:11:57.511Z,60.07
2018-04-09T04:13:04.854Z,58.77
2018-04-09T04:14:09.414Z,57.90
2018-04-09T04:15:13.659Z,59.83
2018-04-09T04:16:36.434Z,60.47
2018-04-09T04:17:59.455Z,60.53
2018-04-09T04:21:07.965Z,56.03
2018-04-09T04:22:12.231Z,55.43
2018-04-09T04:23:16.432Z,57.97
2018-04-09T04:24:23.180Z,59.70
2018-04-09T04:25:31.763Z,58.57
2018-04-09T04:26:41.962Z,58.20
2018-04-09T04:27:46.189Z,57.53
2018-04-09T04:28:51.160Z,56.20
2018-04-09T04:30:02.404Z,57.97
2018-04-09T04:31:09.942Z,58.03
2018-04-09T04:32:14.688Z,57.63
2018-04-09T04:33:18.919Z,60.50
2018-04-09T04:34:28.979Z,59.30
2018-04-09T04:35:36.923Z,56.00
2018-04-09T04:36:41.161Z,57.00
2018-04-09T04:37:45.755Z,56.23
2018-04-09T04:38:53.331Z,58.00
2018-04-09T04:40:01.430Z,61.00
2018-04-09T04:41:09.024Z,60.20
2018-04-09T04:42:13.367Z,56.43
2018-04-09T04:43:17.678Z,57.80
2018-04-09T04:44:27.893Z,55.43
2018-04-09T04:45:37.437Z,54.80
2018-04-09T04:46:43.010Z,55.67
2018-04-09T04:47:47.228Z,59.20
2018-04-09T04:48:54.866Z,57.37
2018-04-09T04:50:03.255Z,58.57
2018-04-09T04:51:10.063Z,57.60
2018-04-09T04:52:14.310Z,60.13
2018-04-09T04:53:18.525Z,55.10
2018-04-09T04:54:25.024Z,57.60
2018-04-09T04:55:34.517Z,58.10
2018-04-09T04:56:39.536Z,56.47
2018-04-09T04:57:43.774Z,59.57
2018-04-09T04:58:48.023Z,58.93
2018-04-09T04:59:57.548Z,60.60
2018-04-09T05:01:04.658Z,58.63
2018-04-09T05:02:12.232Z,57.40
2018-04-09T05:03:16.439Z,59.47
2018-04-09T05:04:22.610Z,57.47
2018-04-09T05:05:30.290Z,59.43
2018-04-09T05:06:38.048Z,61.33
2018-04-09T05:07:42.324Z,56.50
2018-04-09T05:08:46.536Z,59.20
2018-04-09T05:09:51.820Z,57.80
2018-04-09T05:10:59.632Z,55.33
2018-04-09T05:12:05.805Z,54.47
2018-04-09T05:13:10.032Z,56.17
2018-04-09T05:14:14.249Z,55.67
2018-04-09T05:15:18.463Z,56.33
2018-04-09T05:16:25.833Z,56.20
2018-04-09T05:17:31.190Z,58.37
2018-04-09T05:18:36.076Z,54.27
2018-04-09T05:19:40.320Z,59.00
2018-04-09T05:20:44.596Z,56.37
2018-04-09T05:21:48.778Z,53.60
2018-04-09T05:22:58.522Z,57.43
2018-04-09T05:24:05.851Z,54.60
2018-04-09T05:25:11.374Z,57.90
2018-04-09T05:26:15.593Z,54.43
2018-04-09T05:27:20.602Z,57.67
2018-04-09T05:28:28.694Z,55.40
2018-04-09T05:29:34.049Z,54.17
2018-04-09T05:30:39.026Z,55.57
2018-04-09T05:31:43.300Z,56.07
2018-04-09T05:32:47.539Z,54.63
2018-04-09T05:33:54.841Z,54.27
2018-04-09T05:35:03.244Z,56.80
2018-04-09T05:36:09.876Z,55.27
2018-04-09T05:37:14.104Z,58.70
2018-04-09T05:38:18.720Z,58.37
2018-04-09T05:39:27.721Z,56.40
2018-04-09T05:40:35.431Z,55.70
2018-04-09T05:41:40.961Z,57.97
2018-04-09T05:42:45.196Z,56.87
2018-04-09T05:43:49.908Z,56.90
2018-04-09T05:44:59.009Z,54.13
2018-04-09T05:46:04.637Z,55.43
2018-04-09T05:47:10.627Z,55.50
2018-04-09T05:48:14.879Z,54.80
2018-04-09T05:49:19.190Z,53.67
2018-04-09T05:50:29.569Z,55.17
2018-04-09T05:51:38.556Z,57.03
2018-04-09T05:52:42.898Z,55.00
2018-04-09T05:53:47.106Z,56.90
2018-04-09T05:54:55.901Z,55.57
2018-04-09T05:56:03.554Z,52.83
2018-04-09T05:57:10.707Z,56.67
2018-04-09T05:58:15.702Z,53.70
2018-04-09T05:59:23.409Z,57.00
2018-04-09T06:00:37.105Z,53.70
2018-04-09T06:01:41.816Z,49.70
2018-04-09T06:02:46.036Z,54.30
2018-04-09T06:03:53.905Z,54.60
2018-04-09T06:05:03.044Z,53.90
2018-04-09T06:06:09.719Z,52.83
2018-04-09T06:07:13.972Z,53.47
2018-04-09T06:08:18.202Z,55.43
2018-04-09T06:09:28.729Z,54.83
2018-04-09T06:10:38.668Z,52.87
2018-04-09T06:11:42.883Z,50.30
2018-04-09T06:12:47.165Z,52.40
2018-04-09T06:13:55.515Z,51.80
2018-04-09T06:15:05.129Z,51.30
2018-04-09T06:16:11.017Z,51.70
2018-04-09T06:17:15.218Z,51.90
2018-04-09T06:18:19.480Z,54.23
2018-04-09T06:19:29.213Z,51.07
2018-04-09T06:20:37.037Z,48.33
2018-04-09T06:21:42.527Z,52.43
2018-04-09T06:22:46.749Z,51.43
2018-04-09T06:23:54.866Z,52.87
2018-04-09T06:25:02.551Z,52.80
2018-04-09T06:26:09.107Z,51.43
2018-04-09T06:27:14.099Z,48.07
2018-04-09T06:28:18.333Z,50.17
2018-04-09T06:29:29.917Z,50.27
2018-04-09T06:30:38.713Z,48.03
2018-04-09T06:31:43.796Z,49.40
2018-04-09T06:32:48.785Z,47.77
2018-04-09T06:33:58.906Z,51.30
2018-04-09T06:35:05.903Z,48.43
2018-04-09T06:36:11.157Z,50.73
2018-04-09T06:37:15.394Z,50.47
2018-04-09T06:38:23.219Z,50.00
2018-04-09T06:39:31.521Z,50.00
2018-04-09T06:40:39.441Z,52.77
2018-04-09T06:41:43.687Z,51.00
2018-04-09T06:42:47.890Z,48.83
2018-04-09T06:43:56.431Z,48.20
2018-04-09T06:45:04.896Z,49.90
2018-04-09T06:46:10.932Z,47.33
2018-04-09T06:47:15.146Z,49.17
2018-04-09T06:48:19.601Z,47.10
2018-04-09T06:49:30.261Z,47.93
2018-04-09T06:50:37.236Z,49.60
2018-04-09T06:51:41.787Z,46.60
2018-04-09T06:52:46.011Z,51.23
2018-04-09T06:53:52.815Z,49.03
2018-04-09T06:54:59.738Z,48.63
2018-04-09T06:56:06.042Z,45.80
2018-04-09T06:57:10.261Z,46.87
2018-04-09T06:58:14.483Z,48.17
2018-04-09T06:59:18.711Z,50.70
2018-04-09T07:00:26.693Z,46.80
2018-04-09T07:01:32.920Z,47.30
2018-04-09T07:02:37.791Z,47.03
2018-04-09T07:03:42.006Z,48.37
2018-04-09T07:04:47.031Z,49.63
2018-04-09T07:05:54.632Z,45.53
2018-04-09T07:07:03.983Z,46.37
2018-04-09T07:08:09.669Z,46.77
2018-04-09T07:09:13.894Z,46.90
2018-04-09T07:10:18.150Z,44.47
2018-04-09T07:11:32.706Z,44.37
2018-04-09T07:12:39.521Z,44.97
2018-04-09T07:13:44.546Z,45.70
2018-04-09T07:14:48.823Z,44.20
2018-04-09T07:16:08.368Z,43.30
2018-04-09T07:17:14.595Z,43.83
2018-04-09T07:18:18.830Z,46.87
2018-04-09T07:19:26.580Z,48.07
2018-04-09T07:20:36.146Z,43.17
2018-04-09T07:21:41.255Z,45.10
2018-04-09T07:22:45.477Z,44.73
2018-04-09T07:23:50.793Z,44.23
2018-04-09T07:24:56.474Z,43.50
2018-04-09T07:26:07.952Z,43.80
2018-04-09T07:27:12.158Z,41.73
2018-04-09T07:28:16.375Z,44.37
2018-04-09T07:29:21.098Z,42.37
2018-04-09T07:30:28.832Z,40.17
2018-04-09T07:31:35.669Z,44.23
2018-04-09T07:32:41.258Z,43.47
2018-04-09T07:33:45.479Z,42.00
2018-04-09T07:34:50.771Z,40.53
2018-04-09T07:35:59.334Z,42.77
2018-04-09T07:37:06.713Z,39.93
2018-04-09T07:38:12.304Z,39.10
2018-04-09T07:39:16.510Z,39.83
2018-04-09T07:40:24.281Z,40.23
2018-04-09T07:41:33.093Z,40.50
2018-04-09T07:42:40.277Z,39.10
2018-04-09T07:43:44.572Z,40.27
2018-04-09T07:44:48.800Z,37.03
2018-04-09T07:45:58.170Z,38.73
2018-04-09T07:47:05.403Z,40.17
2018-04-09T07:48:10.538Z,40.27
2018-04-09T07:49:14.761Z,36.33
2018-04-09T07:50:18.984Z,36.10
2018-04-09T07:51:27.389Z,36.67
2018-04-09T07:52:33.424Z,37.40
2018-04-09T07:53:40.117Z,36.07
2018-04-09T07:54:45.156Z,39.60
2018-04-09T07:55:50.967Z,39.80
2018-04-09T07:57:00.593Z,36.37
2018-04-09T07:58:09.252Z,36.90
2018-04-09T07:59:13.506Z,36.53
2018-04-09T08:00:18.480Z,35.30
2018-04-09T08:01:28.610Z,36.73
2018-04-09T08:02:34.636Z,36.20
2018-04-09T08:03:40.289Z,39.37
2018-04-09T08:04:44.558Z,38.07
2018-04-09T08:05:48.777Z,38.63
2018-04-09T08:06:58.105Z,38.53
2018-04-09T08:08:06.814Z,36.83
2018-04-09T08:09:11.380Z,37.33
2018-04-09T08:10:16.401Z,34.37
2018-04-09T08:11:26.018Z,36.17
2018-04-09T08:12:36.668Z,36.90
2018-04-09T08:13:42.588Z,37.13
2018-04-09T08:14:47.002Z,36.13
2018-04-09T08:15:56.014Z,35.63
2018-04-09T08:17:02.574Z,36.33
2018-04-09T08:18:07.335Z,34.40
2018-04-09T08:19:11.612Z,36.50
2018-04-09T08:20:15.811Z,34.90
2018-04-09T08:21:23.485Z,36.57
2018-04-09T08:22:31.355Z,35.43
2018-04-09T08:23:39.012Z,35.27
2018-04-09T08:24:43.285Z,34.67
2018-04-09T08:25:47.484Z,35.13
2018-04-09T08:26:54.857Z,35.70
2018-04-09T08:28:02.863Z,33.40
2018-04-09T08:29:09.935Z,35.53
2018-04-09T08:30:14.222Z,34.53
2018-04-09T08:31:18.436Z,33.70
2018-04-09T08:32:27.659Z,33.37
2018-04-09T08:33:33.594Z,33.27
2018-04-09T08:34:39.153Z,34.20
2018-04-09T08:35:43.448Z,36.50
2018-04-09T08:36:47.668Z,33.50
2018-04-09T08:37:57.183Z,33.10
2018-04-09T08:39:06.288Z,30.57
2018-04-09T08:40:10.826Z,32.80
2018-04-09T08:41:15.837Z,33.00
2018-04-09T08:42:23.532Z,33.37
2018-04-09T08:43:33.970Z,34.63
2018-04-09T08:44:39.493Z,35.37
2018-04-09T08:45:44.110Z,30.70
2018-04-09T08:46:48.308Z,36.70
2018-04-09T08:47:57.050Z,30.73
2018-04-09T08:49:06.464Z,34.20
2018-04-09T08:50:10.670Z,31.50
2018-04-09T08:51:14.933Z,30.57
2018-04-09T08:52:19.163Z,31.80
2018-04-09T08:53:30.146Z,30.47
2018-04-09T08:54:38.676Z,28.90
2018-04-09T08:55:42.941Z,28.87
2018-04-09T08:56:47.972Z,30.00
2018-04-09T08:57:57.789Z,27.70
2018-04-09T08:59:05.412Z,30.30
2018-04-09T09:00:10.176Z,25.57
2018-04-09T09:01:14.395Z,28.90
2018-04-09T09:02:20.876Z,28.60
2018-04-09T09:03:28.055Z,28.23
2018-04-09T09:04:32.887Z,29.57
2018-04-09T09:05:37.380Z,29.67
2018-04-09T09:06:41.616Z,29.70
2018-04-09T09:07:45.846Z,28.57
2018-04-09T09:08:53.702Z,27.63
2018-04-09T09:10:01.696Z,29.67
2018-04-09T09:11:07.732Z,28.50
2018-04-09T09:12:11.965Z,28.20
2018-04-09T09:13:16.566Z,29.90
2018-04-09T09:14:22.243Z,28.67
2018-04-09T09:15:28.310Z,26.50
2018-04-09T09:16:33.454Z,29.10
2018-04-09T09:17:37.702Z,26.87
2018-04-09T09:18:42.317Z,27.67
2018-04-09T09:19:46.537Z,27.33
2018-04-09T09:20:53.769Z,28.30
2018-04-09T09:22:05.254Z,29.37
2018-04-09T09:23:10.135Z,27.40
2018-04-09T09:24:14.356Z,28.43
2018-04-09T09:25:20.125Z,29.13
2018-04-09T09:26:30.066Z,28.37
2018-04-09T09:27:36.213Z,30.57
2018-04-09T09:28:41.312Z,27.80
2018-04-09T09:29:45.561Z,29.43
2018-04-09T09:30:50.778Z,26.90
2018-04-09T09:32:00.719Z,29.20
2018-04-09T09:33:08.088Z,28.70
2018-04-09T09:34:12.383Z,27.80
2018-04-09T09:35:17.405Z,26.87
2018-04-09T09:36:26.229Z,27.30
2018-04-09T09:37:34.441Z,28.43
2018-04-09T09:38:41.248Z,26.87
2018-04-09T09:39:45.477Z,27.33
2018-04-09T09:40:51.662Z,26.77
2018-04-09T09:42:00.701Z,25.77
2018-04-09T09:43:07.921Z,28.20
2018-04-09T09:44:12.136Z,26.90
2018-04-09T09:45:16.337Z,25.30
2018-04-09T09:46:23.030Z,24.47
2018-04-09T09:47:31.969Z,25.90
2018-04-09T09:48:38.626Z,25.47
2018-04-09T09:49:42.863Z,24.93
2018-04-09T09:50:47.088Z,25.90
2018-04-09T09:51:55.626Z,23.93
2018-04-09T09:53:03.720Z,22.80
2018-04-09T09:54:09.652Z,23.70
2018-04-09T09:55:13.880Z,28.10
2018-04-09T09:56:18.152Z,24.80
2018-04-09T09:57:26.992Z,25.73
2018-04-09T09:58:35.292Z,24.40
2018-04-09T09:59:40.207Z,24.10
2018-04-09T10:00:48.032Z,24.80
2018-04-09T10:01:56.307Z,22.77
2018-04-09T10:03:02.770Z,22.33
2018-04-09T10:04:09.586Z,23.73
2018-04-09T10:05:13.802Z,24.60
2018-04-09T10:06:18.006Z,23.90
2018-04-09T10:07:27.596Z,25.47
2018-04-09T10:08:34.160Z,23.90
2018-04-09T10:09:39.365Z,23.30
2018-04-09T10:10:43.652Z,24.90
2018-04-09T10:11:47.863Z,22.40
2018-04-09T10:12:56.979Z,23.17
2018-04-09T10:14:04.721Z,24.03
2018-04-09T10:15:10.570Z,21.87
2018-04-09T10:16:14.798Z,23.50
2018-04-09T10:17:19.036Z,23.80
2018-04-09T10:18:31.284Z,22.80
2018-04-09T10:19:37.464Z,23.97
2018-04-09T10:20:41.719Z,25.13
2018-04-09T10:21:45.941Z,22.70
2018-04-09T10:22:53.163Z,24.20
2018-04-09T10:24:02.289Z,23.40
2018-04-09T10:25:10.276Z,22.90
2018-04-09T10:26:14.871Z,23.10
2018-04-09T10:27:19.102Z,22.80
2018-04-09T10:28:28.483Z,23.00
2018-04-09T10:29:34.769Z,22.53
2018-04-09T10:30:38.989Z,23.30
2018-04-09T10:31:43.261Z,22.80
2018-04-09T10:32:47.463Z,25.53
2018-04-09T10:33:56.303Z,24.00
2018-04-09T10:35:04.199Z,22.93
2018-04-09T10:36:08.747Z,24.27
2018-04-09T10:37:12.992Z,23.80
2018-04-09T10:38:17.580Z,23.67
2018-04-09T10:39:22.328Z,22.97
2018-04-09T10:40:30.931Z,22.80
2018-04-09T10:41:36.948Z,22.00
2018-04-09T10:42:41.176Z,22.50
2018-04-09T10:43:45.441Z,22.40
2018-04-09T10:44:50.111Z,23.73
2018-04-09T10:45:57.798Z,24.33
2018-04-09T10:47:03.868Z,24.23
2018-04-09T10:48:08.312Z,21.87
2018-04-09T10:49:12.563Z,24.77
2018-04-09T10:50:17.548Z,23.40
2018-04-09T10:51:24.142Z,21.80
2018-04-09T10:52:30.317Z,22.97
2018-04-09T10:53:38.390Z,23.53
2018-04-09T10:54:42.635Z,21.40
2018-04-09T10:55:46.843Z,24.10
2018-04-09T10:56:52.994Z,22.80
2018-04-09T10:57:59.734Z,22.23
2018-04-09T10:59:05.334Z,21.93
2018-04-09T11:00:09.546Z,23.60
2018-04-09T11:01:13.756Z,22.80
2018-04-09T11:02:18.030Z,22.23
2018-04-09T11:03:24.252Z,21.60
2018-04-09T11:04:29.482Z,21.70
2018-04-09T11:05:35.549Z,21.27
2018-04-09T11:06:39.765Z,21.97
2018-04-09T11:07:44.031Z,21.27
2018-04-09T11:08:48.252Z,19.40
2018-04-09T11:09:56.611Z,20.97
2018-04-09T11:11:01.163Z,20.77
2018-04-09T11:12:07.847Z,19.77
2018-04-09T11:13:12.127Z,21.43
2018-04-09T11:14:17.102Z,20.97
2018-04-09T11:15:22.276Z,21.20
2018-04-09T11:16:26.743Z,21.60
2018-04-09T11:17:34.340Z,22.23
2018-04-09T11:18:39.403Z,22.23
2018-04-09T11:19:43.615Z,20.33
2018-04-09T11:20:47.841Z,21.03
2018-04-09T11:21:56.175Z,22.40
2018-04-09T11:23:00.529Z,21.60
2018-04-09T11:24:07.285Z,21.07
2018-04-09T11:25:11.573Z,20.17
2018-04-09T11:26:15.781Z,21.50
2018-04-09T11:27:20.178Z,19.90
2018-04-09T11:28:24.811Z,19.43
2018-04-09T11:29:31.672Z,20.07
2018-04-09T11:30:38.113Z,21.07
2018-04-09T11:31:42.352Z,20.67
2018-04-09T11:32:47.356Z,19.33
2018-04-09T11:33:52.055Z,21.93
2018-04-09T11:34:58.782Z,21.23
2018-04-09T11:36:06.122Z,21.77
2018-04-09T11:37:10.431Z,20.17
2018-04-09T11:38:14.654Z,20.43
2018-04-09T11:39:18.857Z,21.27
2018-04-09T11:40:25.323Z,21.37
2018-04-09T11:41:32.271Z,20.83
2018-04-09T11:42:37.582Z,18.77
2018-04-09T11:43:41.959Z,20.33
2018-04-09T11:44:46.171Z,22.50
2018-04-09T11:45:52.040Z,21.30
2018-04-09T11:47:01.578Z,22.27
2018-04-09T11:48:07.179Z,21.83
2018-04-09T11:49:11.395Z,19.20
2018-04-09T11:50:15.592Z,21.73
2018-04-09T11:51:20.978Z,20.87
2018-04-09T11:52:30.748Z,19.90
2018-04-09T11:53:38.321Z,21.07
2018-04-09T11:54:42.614Z,20.57
2018-04-09T11:55:46.817Z,20.80
2018-04-09T11:56:57.074Z,21.37
2018-04-09T11:58:04.042Z,21.93
2018-04-09T11:59:09.359Z,20.07
2018-04-09T12:00:13.580Z,20.87
2018-04-09T12:01:17.810Z,21.27
2018-04-09T12:02:29.359Z,22.37
2018-04-09T12:03:38.134Z,20.57
2018-04-09T12:04:42.341Z,19.63
2018-04-09T12:05:47.304Z,21.93
2018-04-09T12:06:54.782Z,20.67
2018-04-09T12:08:04.654Z,19.60
2018-04-09T12:09:11.783Z,21.17
2018-04-09T12:10:16.041Z,19.20
2018-04-09T12:11:23.685Z,20.67
2018-04-09T12:12:31.887Z,21.67
2018-04-09T12:13:38.574Z,20.33
2018-04-09T12:14:42.874Z,20.50
2018-04-09T12:15:47.469Z,20.47
2018-04-09T12:16:56.523Z,21.47
2018-04-09T12:18:04.288Z,23.20
2018-04-09T12:19:09.490Z,21.73
2018-04-09T12:20:13.714Z,20.70
2018-04-09T12:21:17.982Z,20.83
2018-04-09T12:22:23.655Z,21.50
2018-04-09T12:23:32.880Z,22.37
2018-04-09T12:24:38.372Z,20.70
2018-04-09T12:25:43.404Z,20.77
2018-04-09T12:26:48.377Z,22.53
2018-04-09T12:27:56.968Z,21.47
2018-04-09T12:29:05.188Z,21.57
2018-04-09T12:30:09.722Z,20.80
2018-04-09T12:31:13.951Z,20.57
2018-04-09T12:32:18.157Z,20.80
2018-04-09T12:33:26.703Z,21.37
2018-04-09T12:34:32.875Z,20.33
2018-04-09T12:35:38.203Z,20.57
2018-04-09T12:36:43.194Z,21.50
2018-04-09T12:37:47.414Z,21.53
2018-04-09T12:38:57.433Z,20.67
2018-04-09T12:40:03.983Z,19.93
2018-04-09T12:41:09.282Z,22.47
2018-04-09T12:42:14.253Z,19.70
2018-04-09T12:43:18.464Z,20.00
2018-04-09T12:44:22.893Z,20.67
2018-04-09T12:45:29.734Z,19.83
2018-04-09T12:46:38.033Z,21.20
2018-04-09T12:47:44.226Z,21.50
2018-04-09T12:48:48.451Z,19.00
2018-04-09T12:49:57.561Z,20.47
2018-04-09T12:51:04.581Z,20.50
2018-04-09T12:52:09.438Z,21.63
2018-04-09T12:53:14.479Z,21.30
2018-04-09T12:54:18.685Z,18.80
2018-04-09T12:55:28.071Z,21.80
2018-04-09T12:56:33.302Z,21.13
2018-04-09T12:57:38.626Z,21.00
2018-04-09T12:58:42.857Z,21.53
2018-04-09T12:59:47.857Z,19.30
2018-04-09T13:02:01.253Z,21.10
2018-04-09T13:03:08.137Z,22.13
2018-04-09T13:04:12.402Z,21.17
2018-04-09T13:05:16.609Z,20.27
2018-04-09T13:06:24.874Z,20.70
2018-04-09T13:07:33.984Z,21.83
2018-04-09T13:08:39.426Z,20.63
2018-04-09T13:09:43.657Z,20.30
2018-04-09T13:10:47.879Z,20.00
2018-04-09T13:11:52.893Z,20.97
2018-04-09T13:12:58.154Z,20.30
2018-04-09T13:14:05.562Z,20.87
2018-04-09T13:15:10.509Z,20.23
2018-04-09T13:16:14.721Z,20.07
2018-04-09T13:17:21.620Z,19.80
2018-04-09T13:18:30.795Z,19.80
2018-04-09T13:19:36.790Z,20.77
2018-04-09T13:20:41.194Z,20.40
2018-04-09T13:21:46.163Z,17.90
2018-04-09T13:22:52.006Z,20.80
2018-04-09T13:24:04.546Z,20.67
2018-04-09T13:25:12.797Z,20.23
2018-04-09T13:26:17.023Z,20.67
2018-04-09T13:27:29.652Z,19.10
2018-04-09T13:28:40.384Z,19.90
2018-04-09T13:29:44.593Z,18.80
2018-04-09T13:30:48.855Z,19.70
2018-04-09T13:31:58.821Z,19.47
2018-04-09T13:33:05.686Z,19.30
2018-04-09T13:34:11.206Z,20.37
2018-04-09T13:35:15.418Z,19.80
2018-04-09T13:36:20.251Z,20.07
2018-04-09T13:37:31.057Z,18.93
2018-04-09T13:38:43.041Z,20.23
2018-04-09T13:39:47.881Z,19.13
2018-04-09T13:40:58.023Z,20.53
2018-04-09T13:42:07.663Z,19.50
2018-04-09T13:43:11.909Z,19.00
2018-04-09T13:44:16.116Z,18.10
2018-04-09T13:45:26.048Z,16.80
2018-04-09T13:46:33.011Z,19.63
2018-04-09T13:47:38.947Z,18.20
2018-04-09T13:48:43.154Z,18.77
2018-04-09T13:49:48.151Z,18.67
2018-04-09T13:50:56.252Z,17.30
2018-04-09T13:52:03.425Z,17.17
2018-04-09T13:53:16.060Z,17.77
2018-04-09T13:54:23.488Z,18.73
2018-04-09T13:55:29.969Z,16.53
2018-04-09T13:56:37.056Z,16.57
2018-04-09T13:57:41.306Z,18.27
2018-04-09T13:58:45.521Z,19.00
2018-04-09T13:59:50.097Z,17.63
2018-04-09T14:00:57.784Z,20.60
2018-04-09T14:02:06.922Z,18.90
2018-04-09T14:03:11.489Z,18.80
2018-04-09T14:04:16.452Z,19.80
2018-04-09T14:05:24.024Z,20.43
2018-04-09T14:06:34.974Z,19.17
2018-04-09T14:07:40.125Z,19.97
2018-04-09T14:08:44.772Z,17.90
2018-04-09T14:09:48.973Z,19.93
2018-04-09T14:10:58.453Z,18.63
2018-04-09T14:12:06.237Z,18.93
2018-04-09T14:13:11.499Z,19.63
2018-04-09T14:14:16.091Z,19.13
2018-04-09T14:15:23.877Z,20.27
2018-04-09T14:16:32.371Z,17.13